createdAt,value
2023-09-28T00:00:11.325Z,27.01
2023-09-28T00:00:55.505Z,27.01
2023-09-28T00:01:40.185Z,27.01
2023-09-28T00:02:25.462Z,27.01
2023-09-28T00:03:10.259Z,157.61
2023-09-28T00:03:56.615Z,911.66
2023-09-28T00:04:40.071Z,886.97
2023-09-28T00:05:26.229Z,906.70
2023-09-28T00:06:10.800Z,856.78
2023-09-28T00:06:55.931Z,1011.07
2023-09-28T00:07:40.767Z,1035.58
2023-09-28T00:08:25.885Z,1030.13
2023-09-28T00:09:10.733Z,1028.32
2023-09-28T00:10:00.250Z,1028.32
2023-09-28T00:10:41.079Z,1028.32
2023-09-28T00:11:25.344Z,913.96
2023-09-28T00:12:11.941Z,1018.33
2023-09-28T00:12:55.878Z,1024.68
2023-09-28T00:13:41.246Z,1024.68
2023-09-28T00:14:26.211Z,1024.68
2023-09-28T00:15:12.856Z,1024.68
2023-09-28T00:15:56.564Z,1024.68
2023-09-28T00:16:42.517Z,1024.68
2023-09-28T00:17:27.830Z,1024.68
2023-09-28T00:18:14.716Z,1024.68
2023-09-28T00:18:56.768Z,1024.68
2023-09-28T00:19:42.317Z,1024.68
2023-09-28T00:20:26.825Z,1024.68
2023-09-28T00:21:11.493Z,1024.68
2023-09-28T00:21:56.516Z,1024.68
2023-09-28T00:22:43.928Z,1024.68
2023-09-28T00:23:27.530Z,1024.68
2023-09-28T00:24:12.127Z,1024.68
2023-09-28T00:24:58.751Z,1024.68
2023-09-28T00:25:41.579Z,1024.68
2023-09-28T00:26:27.605Z,1024.68
2023-09-28T00:27:11.838Z,1024.68
2023-09-28T00:27:57.541Z,1024.68
2023-09-28T00:28:41.979Z,1024.68
2023-09-28T00:29:27.015Z,1024.68
2023-09-28T00:30:12.077Z,1024.68
2023-09-28T00:30:57.153Z,1024.68
2023-09-28T00:31:42.005Z,139.61
2023-09-28T00:32:28.245Z,123.03
2023-09-28T00:33:11.926Z,56.28
2023-09-28T00:33:58.419Z,56.28
2023-09-28T00:34:42.329Z,56.28
2023-09-28T00:35:27.732Z,56.28
2023-09-28T00:36:12.398Z,56.28
2023-09-28T00:36:58.500Z,79.92
2023-09-28T00:37:43.480Z,113.53
2023-09-28T00:38:28.362Z,130.05
2023-09-28T00:39:12.962Z,102.39
2023-09-28T00:39:57.558Z,68.65
2023-09-28T00:40:42.878Z,87.16
2023-09-28T00:41:28.087Z,87.16
2023-09-28T00:42:14.765Z,56.32
2023-09-28T00:42:57.843Z,56.32
2023-09-28T00:43:44.305Z,56.32
2023-09-28T00:44:28.075Z,56.32
2023-09-28T00:45:14.741Z,88.82
2023-09-28T00:45:58.153Z,72.02
2023-09-28T00:46:42.859Z,66.42
2023-09-28T00:47:28.520Z,49.84
2023-09-28T00:48:13.388Z,99.23
2023-09-28T00:48:58.067Z,124.27
2023-09-28T00:49:43.738Z,124.29
2023-09-28T00:50:28.605Z,1008.94
2023-09-28T00:51:13.544Z,1008.94
2023-09-28T00:51:58.725Z,1007.15
2023-09-28T00:52:45.008Z,1007.15
2023-09-28T00:53:29.161Z,1007.15
2023-09-28T00:54:13.979Z,1007.15
2023-09-28T00:54:59.952Z,1007.15
2023-09-28T00:55:44.988Z,1007.15
2023-09-28T00:56:31.070Z,1007.15
2023-09-28T00:57:15.141Z,1007.15
2023-09-28T00:57:58.962Z,1007.15
2023-09-28T00:58:44.830Z,1007.15
2023-09-28T00:59:29.388Z,1007.15
2023-09-28T01:00:14.562Z,1007.15
2023-09-28T01:00:59.517Z,1007.15
2023-09-28T01:01:44.412Z,1007.15
2023-09-28T01:02:29.741Z,1007.15
2023-09-28T01:03:14.867Z,1007.15
2023-09-28T01:03:59.449Z,1007.15
2023-09-28T01:04:45.344Z,1007.15
2023-09-28T01:05:30.111Z,1007.15
2023-09-28T01:06:14.899Z,1007.15
2023-09-28T01:06:59.938Z,1007.15
2023-09-28T01:07:45.026Z,1007.15
2023-09-28T01:08:30.395Z,1007.15
2023-09-28T01:09:14.910Z,1007.15
2023-09-28T01:09:59.886Z,1007.15
2023-09-28T01:10:45.058Z,1007.15
2023-09-28T01:11:29.666Z,130.46
2023-09-28T01:12:15.645Z,125.09
2023-09-28T01:12:59.984Z,133.76
2023-09-28T01:13:46.494Z,88.84
2023-09-28T01:14:29.804Z,88.84
2023-09-28T01:15:14.738Z,144.00
2023-09-28T01:16:00.608Z,125.38
2023-09-28T01:16:45.093Z,137.97
2023-09-28T01:17:30.836Z,144.35
2023-09-28T01:18:15.812Z,142.22
2023-09-28T01:19:00.289Z,142.22
2023-09-28T01:19:45.842Z,69.41
2023-09-28T01:20:30.296Z,136.65
2023-09-28T01:21:15.291Z,135.00
2023-09-28T01:22:01.091Z,137.07
2023-09-28T01:22:46.234Z,132.11
2023-09-28T01:23:30.772Z,132.44
2023-09-28T01:24:15.830Z,131.24
2023-09-28T01:25:00.876Z,67.62
2023-09-28T01:25:45.701Z,134.84
2023-09-28T01:26:31.118Z,135.41
2023-09-28T01:27:16.321Z,400.09
2023-09-28T01:28:01.406Z,400.09
2023-09-28T01:28:46.521Z,400.09
2023-09-28T01:29:31.320Z,400.09
2023-09-28T01:30:21.003Z,400.09
2023-09-28T01:31:01.241Z,400.09
2023-09-28T01:31:46.392Z,400.09
2023-09-28T01:32:31.237Z,400.09
2023-09-28T01:33:18.519Z,400.09
2023-09-28T01:34:03.644Z,400.09
2023-09-28T01:34:46.386Z,400.09
2023-09-28T01:35:31.873Z,400.09
2023-09-28T01:36:17.618Z,400.09
2023-09-28T01:37:02.047Z,400.09
2023-09-28T01:37:46.923Z,400.09
2023-09-28T01:38:31.213Z,182.05
2023-09-28T01:39:16.035Z,210.59
2023-09-28T01:40:01.193Z,184.64
2023-09-28T01:40:46.051Z,995.44
2023-09-28T01:41:33.061Z,994.57
2023-09-28T01:42:16.771Z,1000.65
2023-09-28T01:43:01.830Z,896.46
2023-09-28T01:43:48.432Z,997.18
2023-09-28T01:44:31.499Z,998.04
2023-09-28T01:45:16.719Z,1011.06
2023-09-28T01:46:02.285Z,1011.06
2023-09-28T01:46:46.454Z,953.06
2023-09-28T01:47:32.876Z,953.06
2023-09-28T01:48:16.912Z,1021.20
2023-09-28T01:49:01.788Z,1023.86
2023-09-28T01:49:46.837Z,1018.55
2023-09-28T01:50:32.828Z,1016.78
2023-09-28T01:51:17.221Z,1003.25
2023-09-28T01:52:02.519Z,998.91
2023-09-28T01:52:47.209Z,1009.33
2023-09-28T01:53:32.882Z,1009.33
2023-09-28T01:54:17.337Z,1009.33
2023-09-28T01:55:02.039Z,979.83
2023-09-28T01:55:47.278Z,979.83
2023-09-28T01:56:32.142Z,241.93
2023-09-28T01:57:17.095Z,213.59
2023-09-28T01:58:02.907Z,226.06
2023-09-28T01:58:47.959Z,189.91
2023-09-28T01:59:32.507Z,140.81
2023-09-28T02:00:17.420Z,176.91
2023-09-28T02:01:02.600Z,170.39
2023-09-28T02:01:47.502Z,168.31
2023-09-28T02:02:32.909Z,168.31
2023-09-28T02:03:17.953Z,162.66
2023-09-28T02:04:02.671Z,979.82
2023-09-28T02:04:48.775Z,979.82
2023-09-28T02:05:33.440Z,979.82
2023-09-28T02:06:19.010Z,979.82
2023-09-28T02:07:03.943Z,216.97
2023-09-28T02:07:50.726Z,216.97
2023-09-28T02:08:33.235Z,216.97
2023-09-28T02:09:18.562Z,216.97
2023-09-28T02:10:02.987Z,216.97
2023-09-28T02:10:50.637Z,216.97
2023-09-28T02:11:34.051Z,216.97
2023-09-28T02:12:18.315Z,216.97
2023-09-28T02:13:03.585Z,216.97
2023-09-28T02:13:48.751Z,216.97
2023-09-28T02:14:33.692Z,216.97
2023-09-28T02:15:18.824Z,216.97
2023-09-28T02:16:03.827Z,216.97
2023-09-28T02:16:49.363Z,216.97
2023-09-28T02:17:33.644Z,216.97
2023-09-28T02:18:18.772Z,216.97
2023-09-28T02:19:04.091Z,216.97
2023-09-28T02:19:49.063Z,216.97
2023-09-28T02:20:34.250Z,216.97
2023-09-28T02:21:18.794Z,216.97
2023-09-28T02:22:04.061Z,216.97
2023-09-28T02:22:49.133Z,140.79
2023-09-28T02:23:34.173Z,140.79
2023-09-28T02:24:19.588Z,140.79
2023-09-28T02:25:03.974Z,140.79
2023-09-28T02:25:50.399Z,140.79
2023-09-28T02:26:34.965Z,140.79
2023-09-28T02:27:21.481Z,995.44
2023-09-28T02:28:04.507Z,995.44
2023-09-28T02:28:49.778Z,995.44
2023-09-28T02:29:35.825Z,995.44
2023-09-28T02:30:20.880Z,995.44
2023-09-28T02:31:04.835Z,994.57
2023-09-28T02:31:50.086Z,994.57
2023-09-28T02:32:35.038Z,994.57
2023-09-28T02:33:20.041Z,994.57
2023-09-28T02:34:05.188Z,994.57
2023-09-28T02:34:50.025Z,994.57
2023-09-28T02:35:35.201Z,994.57
2023-09-28T02:36:20.827Z,994.57
2023-09-28T02:37:05.013Z,994.57
2023-09-28T02:37:50.720Z,994.57
2023-09-28T02:38:34.835Z,823.60
2023-09-28T02:39:20.704Z,823.60
2023-09-28T02:40:05.013Z,254.73
2023-09-28T02:40:50.599Z,997.18
2023-09-28T02:41:35.278Z,971.97
2023-09-28T02:42:20.583Z,1004.99
2023-09-28T02:43:05.479Z,1016.27
2023-09-28T02:43:50.510Z,1016.27
2023-09-28T02:44:36.278Z,1000.65
2023-09-28T02:45:20.945Z,993.57
2023-09-28T02:46:06.013Z,993.57
2023-09-28T02:46:51.669Z,993.57
2023-09-28T02:47:36.439Z,993.57
2023-09-28T02:48:21.004Z,993.57
2023-09-28T02:49:51.216Z,993.57
2023-09-28T02:50:36.505Z,993.57
2023-09-28T02:51:21.471Z,993.57
2023-09-28T02:52:06.336Z,993.57
2023-09-28T02:52:51.399Z,993.57
2023-09-28T02:53:36.728Z,993.57
2023-09-28T02:54:21.517Z,993.57
2023-09-28T02:55:06.960Z,993.57
2023-09-28T02:55:51.538Z,993.57
2023-09-28T02:56:36.345Z,993.57
2023-09-28T02:57:21.636Z,993.57
2023-09-28T02:58:06.874Z,993.57
2023-09-28T02:58:51.864Z,993.57
2023-09-28T02:59:37.308Z,993.57
2023-09-28T03:00:23.284Z,993.57
2023-09-28T03:01:07.245Z,993.57
2023-09-28T03:01:52.452Z,993.57
2023-09-28T03:02:37.296Z,993.57
2023-09-28T03:03:22.165Z,993.57
2023-09-28T03:04:07.061Z,993.57
2023-09-28T03:04:54.186Z,993.57
2023-09-28T03:05:37.513Z,993.57
2023-09-28T03:06:21.877Z,134.06
2023-09-28T03:07:07.753Z,134.06
2023-09-28T03:07:52.499Z,165.52
2023-09-28T03:08:39.301Z,165.52
2023-09-28T03:09:23.268Z,165.52
2023-09-28T03:10:07.580Z,165.52
2023-09-28T03:10:52.980Z,165.52
2023-09-28T03:11:37.899Z,165.52
2023-09-28T03:12:22.903Z,165.52
2023-09-28T03:13:07.597Z,165.52
2023-09-28T03:13:53.011Z,165.52
2023-09-28T03:14:37.869Z,165.52
2023-09-28T03:15:23.539Z,165.52
2023-09-28T03:16:08.222Z,165.52
2023-09-28T03:16:53.326Z,165.52
2023-09-28T03:17:38.042Z,165.52
2023-09-28T03:18:23.087Z,165.52
2023-09-28T03:19:08.249Z,165.52
2023-09-28T03:19:53.764Z,165.52
2023-09-28T03:20:38.052Z,165.52
2023-09-28T03:21:22.705Z,992.71
2023-09-28T03:22:08.278Z,992.71
2023-09-28T03:22:53.480Z,992.71
2023-09-28T03:23:38.283Z,992.71
2023-09-28T03:24:23.331Z,992.71
2023-09-28T03:25:09.633Z,992.71
2023-09-28T03:25:53.840Z,992.71
2023-09-28T03:26:38.866Z,992.71
2023-09-28T03:27:23.835Z,992.71
2023-09-28T03:28:08.020Z,1005.86
2023-09-28T03:28:52.881Z,995.29
2023-09-28T03:29:38.012Z,960.90
2023-09-28T03:30:23.819Z,984.99
2023-09-28T03:31:08.463Z,992.71
2023-09-28T03:31:53.675Z,983.27
2023-09-28T03:32:38.612Z,995.29
2023-09-28T03:33:23.626Z,998.73
2023-09-28T03:34:08.755Z,996.15
2023-09-28T03:34:53.760Z,999.58
2023-09-28T03:35:39.046Z,996.15
2023-09-28T03:36:23.524Z,996.15
2023-09-28T03:37:08.986Z,998.73
2023-09-28T03:37:54.261Z,969.19
2023-09-28T03:38:39.223Z,1002.16
2023-09-28T03:39:24.066Z,963.38
2023-09-28T03:40:09.109Z,994.43
2023-09-28T03:40:54.713Z,1000.44
2023-09-28T03:41:39.519Z,1000.44
2023-09-28T03:42:24.376Z,999.58
2023-09-28T03:43:09.962Z,1009.03
2023-09-28T03:43:54.680Z,1016.76
2023-09-28T03:44:39.665Z,1013.32
2023-09-28T03:45:24.211Z,1015.04
2023-09-28T03:46:09.819Z,1003.88
2023-09-28T03:46:54.866Z,1016.76
2023-09-28T03:47:39.778Z,1003.88
2023-09-28T03:48:24.933Z,1019.34
2023-09-28T03:49:09.994Z,1016.76
2023-09-28T03:49:55.347Z,994.43
2023-09-28T03:50:40.430Z,965.04
2023-09-28T03:51:25.054Z,996.15
2023-09-28T03:52:09.908Z,997.87
2023-09-28T03:52:54.802Z,1003.02
2023-09-28T03:53:40.103Z,1003.02
2023-09-28T03:54:25.184Z,981.55
2023-09-28T03:55:10.642Z,997.87
2023-09-28T03:55:55.197Z,997.87
2023-09-28T03:56:40.302Z,1003.88
2023-09-28T03:57:25.403Z,967.53
2023-09-28T03:58:10.977Z,967.53
2023-09-28T03:58:55.743Z,997.87
2023-09-28T03:59:40.675Z,999.58
2023-09-28T04:00:25.582Z,1013.32
2023-09-28T04:01:10.940Z,1003.02
2023-09-28T04:01:55.885Z,1015.04
2023-09-28T04:02:40.709Z,1009.75
2023-09-28T04:03:25.831Z,995.31
2023-09-28T04:04:10.930Z,979.52
2023-09-28T04:04:55.988Z,949.66
2023-09-28T04:05:40.836Z,996.16
2023-09-28T04:06:25.776Z,955.10
2023-09-28T04:07:10.860Z,1005.50
2023-09-28T04:07:56.344Z,995.31
2023-09-28T04:08:40.849Z,997.86
2023-09-28T04:09:26.388Z,986.82
2023-09-28T04:10:11.608Z,992.76
2023-09-28T04:10:56.211Z,1008.90
2023-09-28T04:11:41.298Z,997.01
2023-09-28T04:12:25.844Z,1001.26
2023-09-28T04:13:11.261Z,995.31
2023-09-28T04:13:56.435Z,990.22
2023-09-28T04:14:41.200Z,993.61
2023-09-28T04:15:27.952Z,959.19
2023-09-28T04:16:11.327Z,980.03
2023-09-28T04:16:56.505Z,966.09
2023-09-28T04:17:43.783Z,921.80
2023-09-28T04:18:26.642Z,987.67
2023-09-28T04:19:11.839Z,987.67
2023-09-28T04:19:56.522Z,986.82
2023-09-28T04:20:41.537Z,989.37
2023-09-28T04:21:26.609Z,986.82
2023-09-28T04:22:11.445Z,991.92
2023-09-28T04:22:56.846Z,957.55
2023-09-28T04:23:41.862Z,992.76
2023-09-28T04:24:26.718Z,995.31
2023-09-28T04:25:12.168Z,981.72
2023-09-28T04:25:57.640Z,988.52
2023-09-28T04:26:41.793Z,990.22
2023-09-28T04:27:27.048Z,995.31
2023-09-28T04:28:11.912Z,994.46
2023-09-28T04:28:57.190Z,996.16
2023-09-28T04:29:42.113Z,994.46
2023-09-28T04:30:27.184Z,986.82
2023-09-28T04:31:12.717Z,998.73
2023-09-28T04:31:57.435Z,989.28
2023-09-28T04:32:42.727Z,995.29
2023-09-28T04:33:27.733Z,1001.30
2023-09-28T04:34:12.653Z,1021.48
2023-09-28T04:34:57.492Z,1016.27
2023-09-28T04:35:43.193Z,1027.40
2023-09-28T04:36:27.545Z,1047.33
2023-09-28T04:37:12.816Z,1042.87
2023-09-28T04:37:57.801Z,1045.55
2023-09-28T04:38:42.890Z,1049.00
2023-09-28T04:39:27.843Z,1056.45
2023-09-28T04:40:13.168Z,1055.54
2023-09-28T04:40:58.472Z,1051.91
2023-09-28T04:41:42.717Z,1001.99
2023-09-28T04:42:28.755Z,1058.88
2023-09-28T04:43:13.139Z,1079.86
2023-09-28T04:43:58.375Z,1074.30
2023-09-28T04:44:42.952Z,1072.44
2023-09-28T04:45:28.842Z,1067.81
2023-09-28T04:46:13.617Z,1075.34
2023-09-28T04:46:58.689Z,1071.61
2023-09-28T04:47:43.713Z,1036.17
2023-09-28T04:48:30.485Z,1072.16
2023-09-28T04:49:18.240Z,1073.10
2023-09-28T04:49:59.245Z,1074.04
2023-09-28T04:50:44.923Z,1078.73
2023-09-28T04:51:28.416Z,1072.16
2023-09-28T04:52:15.482Z,1074.98
2023-09-28T04:52:59.101Z,1076.06
2023-09-28T04:53:44.132Z,1069.45
2023-09-28T04:54:29.485Z,1082.66
2023-09-28T04:55:14.145Z,1070.40
2023-09-28T04:55:59.127Z,487.57
2023-09-28T04:56:43.735Z,480.97
2023-09-28T04:57:28.928Z,470.12
2023-09-28T04:58:20.001Z,487.57
2023-09-28T04:58:59.059Z,1076.72
2023-09-28T04:59:44.426Z,1080.51
2023-09-28T05:00:29.801Z,1083.36
2023-09-28T05:01:14.721Z,1078.62
2023-09-28T05:01:59.459Z,1073.88
2023-09-28T05:02:44.615Z,1085.25
2023-09-28T05:03:29.477Z,490.02
2023-09-28T05:04:14.879Z,505.19
2023-09-28T05:04:59.899Z,505.19
2023-09-28T05:05:45.259Z,504.24
2023-09-28T05:06:29.985Z,503.29
2023-09-28T05:07:15.397Z,503.29
2023-09-28T05:08:02.784Z,503.29
2023-09-28T05:08:45.634Z,503.29
2023-09-28T05:09:31.444Z,503.29
2023-09-28T05:10:15.435Z,503.29
2023-09-28T05:11:00.598Z,503.29
2023-09-28T05:11:46.021Z,503.29
2023-09-28T05:12:30.857Z,503.29
2023-09-28T05:13:15.593Z,503.29
2023-09-28T05:14:00.863Z,503.29
2023-09-28T05:14:45.814Z,503.29
2023-09-28T05:15:32.102Z,503.29
2023-09-28T05:16:15.674Z,503.29
2023-09-28T05:17:01.469Z,503.29
2023-09-28T05:17:46.621Z,503.29
2023-09-28T05:18:31.253Z,503.29
2023-09-28T05:19:17.146Z,503.29
2023-09-28T05:20:01.114Z,503.29
2023-09-28T05:20:48.834Z,503.29
2023-09-28T05:21:32.309Z,503.29
2023-09-28T05:22:20.338Z,503.29
2023-09-28T05:23:01.691Z,503.29
2023-09-28T05:23:46.650Z,503.29
2023-09-28T05:24:31.574Z,503.29
2023-09-28T05:25:17.798Z,503.29
2023-09-28T05:26:03.432Z,503.29
2023-09-28T05:26:47.126Z,503.29
2023-09-28T05:27:32.518Z,503.29
2023-09-28T05:28:16.941Z,503.29
2023-09-28T05:29:02.008Z,503.29
2023-09-28T05:29:47.064Z,503.29
2023-09-28T05:30:32.311Z,503.29
2023-09-28T05:31:17.503Z,503.29
2023-09-28T05:32:02.053Z,503.29
2023-09-28T05:32:46.993Z,503.29
2023-09-28T05:33:32.860Z,503.29
2023-09-28T05:34:17.219Z,503.29
2023-09-28T05:35:02.957Z,503.29
2023-09-28T05:35:47.491Z,503.29
2023-09-28T05:36:32.601Z,503.29
2023-09-28T05:37:17.302Z,503.29
2023-09-28T05:38:02.496Z,503.29
2023-09-28T05:38:47.526Z,503.29
2023-09-28T05:39:33.667Z,503.29
2023-09-28T05:40:17.543Z,503.29
2023-09-28T05:41:03.082Z,503.29
2023-09-28T05:41:49.592Z,503.29
2023-09-28T05:42:32.591Z,503.29
2023-09-28T05:43:17.755Z,503.29
2023-09-28T05:44:02.755Z,503.29
2023-09-28T05:44:47.876Z,503.29
2023-09-28T05:45:33.851Z,503.29
2023-09-28T05:46:17.969Z,503.29
2023-09-28T05:47:02.978Z,503.29
2023-09-28T05:47:48.272Z,503.29
2023-09-28T05:48:33.102Z,503.29
2023-09-28T05:49:18.827Z,503.29
2023-09-28T05:50:03.340Z,503.29
2023-09-28T05:50:49.065Z,503.29
2023-09-28T05:51:33.275Z,503.29
2023-09-28T05:52:21.530Z,503.29
2023-09-28T05:53:03.295Z,503.29
2023-09-28T05:53:49.407Z,503.29
2023-09-28T05:54:33.520Z,503.29
2023-09-28T05:55:18.716Z,503.29
2023-09-28T05:56:03.763Z,503.29
2023-09-28T05:56:48.998Z,503.29
2023-09-28T05:57:33.785Z,503.29
2023-09-28T05:58:19.056Z,503.29
2023-09-28T05:59:04.902Z,503.29
2023-09-28T05:59:49.163Z,503.29
2023-09-28T06:00:33.764Z,503.29
2023-09-28T06:01:19.166Z,503.29
2023-09-28T06:02:03.909Z,503.29
2023-09-28T06:02:49.173Z,503.29
2023-09-28T06:03:34.210Z,503.29
2023-09-28T06:04:19.795Z,503.29
2023-09-28T06:05:04.350Z,503.29
2023-09-28T06:05:50.886Z,503.29
2023-09-28T06:06:34.959Z,503.29
2023-09-28T06:07:19.912Z,503.29
2023-09-28T06:08:07.440Z,503.29
2023-09-28T06:08:49.748Z,503.29
2023-09-28T06:09:34.866Z,503.29
2023-09-28T06:10:20.017Z,503.29
2023-09-28T06:11:12.451Z,503.29
2023-09-28T06:11:50.168Z,503.29
2023-09-28T06:12:35.257Z,503.29
2023-09-28T06:13:19.715Z,503.29
2023-09-28T06:14:08.484Z,503.29
2023-09-28T06:14:50.948Z,503.29
2023-09-28T06:15:35.653Z,503.29
2023-09-28T06:16:20.819Z,503.29
2023-09-28T06:17:05.715Z,503.29
2023-09-28T06:17:50.524Z,503.29
2023-09-28T06:18:35.101Z,503.29
2023-09-28T06:19:20.470Z,503.29
2023-09-28T06:20:05.132Z,503.29
2023-09-28T06:20:50.777Z,503.29
2023-09-28T06:21:36.196Z,503.29
2023-09-28T06:22:20.788Z,503.29
2023-09-28T06:23:05.889Z,503.29
2023-09-28T06:23:50.893Z,503.29
2023-09-28T06:24:36.750Z,503.29
2023-09-28T06:25:20.611Z,503.29
2023-09-28T06:26:06.034Z,503.29
2023-09-28T06:26:53.205Z,503.29
2023-09-28T06:27:36.403Z,503.29
2023-09-28T06:28:21.060Z,503.29
2023-09-28T06:29:06.455Z,503.29
2023-09-28T06:29:51.490Z,503.29
2023-09-28T06:30:37.373Z,503.29
2023-09-28T06:31:21.187Z,503.29
2023-09-28T06:32:07.450Z,503.29
2023-09-28T06:32:51.498Z,503.29
2023-09-28T06:33:36.333Z,503.29
2023-09-28T06:34:21.395Z,503.29
2023-09-28T06:35:07.156Z,503.29
2023-09-28T06:35:51.393Z,503.29
2023-09-28T06:37:21.515Z,503.29
2023-09-28T06:38:06.971Z,503.29
2023-09-28T06:38:52.258Z,503.29
2023-09-28T06:39:36.784Z,503.29
2023-09-28T06:40:22.502Z,503.29
2023-09-28T06:41:07.532Z,503.29
2023-09-28T06:41:52.161Z,503.29
2023-09-28T06:42:38.005Z,503.29
2023-09-28T06:43:22.499Z,503.29
2023-09-28T06:44:10.107Z,503.29
2023-09-28T06:44:52.790Z,503.29
2023-09-28T06:45:38.990Z,503.29
2023-09-28T06:46:23.534Z,503.29
2023-09-28T06:47:07.921Z,503.29
2023-09-28T06:48:02.832Z,503.29
2023-09-28T06:48:37.606Z,503.29
2023-09-28T06:49:22.801Z,503.29
2023-09-28T06:50:07.826Z,503.29
2023-09-28T06:50:53.762Z,503.29
2023-09-28T06:51:37.941Z,503.29
2023-09-28T06:52:23.112Z,503.29
2023-09-28T06:53:10.114Z,503.29
2023-09-28T06:53:53.182Z,503.29
2023-09-28T06:54:37.870Z,503.29
2023-09-28T06:55:23.847Z,503.29
2023-09-28T06:56:14.164Z,503.29
2023-09-28T06:56:53.590Z,503.29
2023-09-28T06:57:38.467Z,503.29
2023-09-28T06:58:23.361Z,503.29
2023-09-28T06:59:08.622Z,503.29
2023-09-28T06:59:53.456Z,503.29
2023-09-28T07:00:38.576Z,503.29
2023-09-28T07:01:26.198Z,503.29
2023-09-28T07:02:08.731Z,503.29
2023-09-28T07:02:53.680Z,503.29
2023-09-28T07:03:38.743Z,503.29
2023-09-28T07:04:23.921Z,503.29
2023-09-28T07:05:09.076Z,503.29
2023-09-28T07:05:56.942Z,503.29
2023-09-28T07:06:39.851Z,503.29
2023-09-28T07:07:23.703Z,503.29
2023-09-28T07:08:09.192Z,503.29
2023-09-28T07:08:55.368Z,503.29
2023-09-28T07:09:51.143Z,503.29
2023-09-28T07:10:24.873Z,503.29
2023-09-28T07:11:12.212Z,503.29
2023-09-28T07:11:54.097Z,503.29
2023-09-28T07:12:40.184Z,503.29
2023-09-28T07:13:24.329Z,503.29
2023-09-28T07:14:09.534Z,503.29
2023-09-28T07:14:54.234Z,503.29
2023-09-28T07:15:39.537Z,503.29
2023-09-28T07:16:25.273Z,503.29
2023-09-28T07:17:09.694Z,503.29
2023-09-28T07:17:54.881Z,503.29
2023-09-28T07:18:39.622Z,503.29
2023-09-28T07:19:24.981Z,503.29
2023-09-28T07:20:10.000Z,503.29
2023-09-28T07:20:55.001Z,503.29
2023-09-28T07:21:39.920Z,503.29
2023-09-28T07:22:25.014Z,503.29
2023-09-28T07:23:10.312Z,503.29
2023-09-28T07:24:01.829Z,503.29
2023-09-28T07:24:40.079Z,503.29
2023-09-28T07:25:25.886Z,503.29
2023-09-28T07:26:10.346Z,503.29
2023-09-28T07:26:55.417Z,503.29
2023-09-28T07:27:40.512Z,503.29
2023-09-28T07:28:25.304Z,503.29
2023-09-28T07:29:10.271Z,503.29
2023-09-28T07:29:55.823Z,503.29
2023-09-28T07:30:40.901Z,503.29
2023-09-28T07:31:26.959Z,503.29
2023-09-28T07:32:10.598Z,503.29
2023-09-28T07:32:55.724Z,503.29
2023-09-28T07:33:41.825Z,503.29
2023-09-28T07:34:25.512Z,503.29
2023-09-28T07:35:11.034Z,503.29
2023-09-28T07:35:55.882Z,503.29
2023-09-28T07:36:40.984Z,503.29
2023-09-28T07:37:26.206Z,503.29
2023-09-28T07:38:10.979Z,503.29
2023-09-28T07:38:56.437Z,503.29
2023-09-28T07:39:41.254Z,503.29
2023-09-28T07:40:44.379Z,503.29
2023-09-28T07:41:11.218Z,503.29
2023-09-28T07:41:56.478Z,503.29
2023-09-28T07:42:41.377Z,503.29
2023-09-28T07:43:26.386Z,503.29
2023-09-28T07:44:11.274Z,503.29
2023-09-28T07:44:56.972Z,503.29
2023-09-28T07:45:42.098Z,503.29
2023-09-28T07:46:27.263Z,503.29
2023-09-28T07:47:11.501Z,503.29
2023-09-28T07:47:56.776Z,503.29
2023-09-28T07:48:41.567Z,503.29
2023-09-28T07:49:26.845Z,503.29
2023-09-28T07:50:11.820Z,503.29
2023-09-28T07:50:57.193Z,503.29
2023-09-28T07:51:42.102Z,503.29
2023-09-28T07:52:27.467Z,503.29
2023-09-28T07:53:12.356Z,503.29
2023-09-28T07:53:57.280Z,503.29
2023-09-28T07:54:42.254Z,503.29
2023-09-28T07:55:27.658Z,503.29
2023-09-28T07:56:12.303Z,503.29
2023-09-28T07:56:57.303Z,503.29
2023-09-28T07:58:28.319Z,503.29
2023-09-28T07:59:12.688Z,503.29
2023-09-28T07:59:57.724Z,503.29
2023-09-28T08:00:42.879Z,503.29
2023-09-28T08:01:28.057Z,503.29
2023-09-28T08:02:12.810Z,503.29
2023-09-28T08:02:57.765Z,503.29
2023-09-28T08:03:44.417Z,503.29
2023-09-28T08:04:27.862Z,503.29
2023-09-28T08:05:13.407Z,503.29
2023-09-28T08:05:57.961Z,503.29
2023-09-28T08:06:43.175Z,503.29
2023-09-28T08:07:27.989Z,503.29
2023-09-28T08:08:16.692Z,503.29
2023-09-28T08:08:58.378Z,503.29
2023-09-28T08:09:43.147Z,503.29
2023-09-28T08:10:28.300Z,503.29
2023-09-28T08:11:13.453Z,503.29
2023-09-28T08:11:59.785Z,503.29
2023-09-28T08:12:43.129Z,503.29
2023-09-28T08:13:28.450Z,503.29
2023-09-28T08:14:15.703Z,503.29
2023-09-28T08:14:58.455Z,503.29
2023-09-28T08:15:43.646Z,503.29
2023-09-28T08:16:28.638Z,503.29
2023-09-28T08:17:13.801Z,503.29
2023-09-28T08:17:59.103Z,503.29
2023-09-28T08:18:44.042Z,503.29
2023-09-28T08:19:28.988Z,503.29
2023-09-28T08:20:14.193Z,503.29
2023-09-28T08:21:09.648Z,503.29
2023-09-28T08:21:44.664Z,503.29
2023-09-28T08:22:29.221Z,503.29
2023-09-28T08:23:14.274Z,503.29
2023-09-28T08:23:59.332Z,503.29
2023-09-28T08:24:44.187Z,503.29
2023-09-28T08:25:29.904Z,503.29
2023-09-28T08:26:14.759Z,503.29
2023-09-28T08:26:59.657Z,503.29
2023-09-28T08:27:44.989Z,503.29
2023-09-28T08:28:29.771Z,503.29
2023-09-28T08:29:14.763Z,503.29
2023-09-28T08:29:59.842Z,503.29
2023-09-28T08:30:45.345Z,503.29
2023-09-28T08:31:30.222Z,503.29
2023-09-28T08:32:15.077Z,503.29
2023-09-28T08:33:45.492Z,503.29
2023-09-28T08:34:38.716Z,503.29
2023-09-28T08:35:15.992Z,503.29
2023-09-28T08:35:59.956Z,503.29
2023-09-28T08:36:45.186Z,503.29
2023-09-28T08:37:30.245Z,503.29
2023-09-28T08:38:15.255Z,503.29
2023-09-28T08:39:00.158Z,503.29
2023-09-28T08:39:45.200Z,503.29
2023-09-28T08:40:30.572Z,503.29
2023-09-28T08:41:15.373Z,503.29
2023-09-28T08:42:00.372Z,503.29
2023-09-28T08:42:47.042Z,503.29
2023-09-28T08:43:30.505Z,503.29
2023-09-28T08:44:15.362Z,503.29
2023-09-28T08:45:00.604Z,503.29
2023-09-28T08:45:45.591Z,503.29
2023-09-28T08:46:44.638Z,503.29
2023-09-28T08:47:15.712Z,503.29
2023-09-28T08:48:01.305Z,503.29
2023-09-28T08:48:46.089Z,503.29
2023-09-28T08:49:30.783Z,503.29
2023-09-28T08:50:16.546Z,503.29
2023-09-28T08:51:01.021Z,503.29
2023-09-28T08:51:46.055Z,503.29
2023-09-28T08:52:30.919Z,503.29
2023-09-28T08:53:16.053Z,503.29
2023-09-28T08:54:01.127Z,503.29
2023-09-28T08:54:46.232Z,503.29
2023-09-28T08:55:32.154Z,503.29
2023-09-28T08:56:16.378Z,503.29
2023-09-28T08:57:01.607Z,503.29
2023-09-28T08:57:45.940Z,503.29
2023-09-28T08:58:31.801Z,503.29
2023-09-28T08:59:16.605Z,503.29
2023-09-28T09:00:01.629Z,503.29
2023-09-28T09:00:46.719Z,503.29
2023-09-28T09:01:31.812Z,503.29
2023-09-28T09:02:16.916Z,503.29
2023-09-28T09:03:01.650Z,503.29
2023-09-28T09:03:46.819Z,503.29
2023-09-28T09:04:31.831Z,503.29
2023-09-28T09:05:16.884Z,503.29
2023-09-28T09:06:01.874Z,503.29
2023-09-28T09:06:47.383Z,503.29
2023-09-28T09:07:31.985Z,503.29
2023-09-28T09:08:16.876Z,503.29
2023-09-28T09:09:02.226Z,503.29
2023-09-28T09:09:47.639Z,503.29
2023-09-28T09:10:32.170Z,503.29
2023-09-28T09:11:17.292Z,503.29
2023-09-28T09:12:02.018Z,503.29
2023-09-28T09:12:47.590Z,503.29
2023-09-28T09:13:32.544Z,503.29
2023-09-28T09:14:17.356Z,503.29
2023-09-28T09:15:02.379Z,503.29
2023-09-28T09:15:47.984Z,503.29
2023-09-28T09:16:32.473Z,503.29
2023-09-28T09:17:17.697Z,503.29
2023-09-28T09:18:02.705Z,503.29
2023-09-28T09:18:47.365Z,503.29
2023-09-28T09:19:32.596Z,503.29
2023-09-28T09:20:17.825Z,503.29
2023-09-28T09:21:03.512Z,503.29
2023-09-28T09:21:47.614Z,503.29
2023-09-28T09:22:42.082Z,503.29